sensor_id;sensor_type;location;lat;lon;timestamp;P1;durP1;ratioP1;P2;durP2;ratioP2
48363;SDS011;34170;54.364;18.582;2024-02-21T00:01:37;13.68;;;3.03;;
48363;SDS011;34170;54.364;18.582;2024-02-21T00:04:04;15.77;;;3.15;;
48363;SDS011;34170;54.364;18.582;2024-02-21T00:06:33;19.45;;;3.20;;
48363;SDS011;34170;54.364;18.582;2024-02-21T00:09:00;15.00;;;2.80;;
48363;SDS011;34170;54.364;18.582;2024-02-21T00:11:28;18.27;;;3.20;;
48363;SDS011;34170;54.364;18.582;2024-02-21T00:13:55;16.65;;;2.65;;
48363;SDS011;34170;54.364;18.582;2024-02-21T00:16:23;21.77;;;3.25;;
48363;SDS011;34170;54.364;18.582;2024-02-21T00:18:51;21.42;;;4.03;;
48363;SDS011;34170;54.364;18.582;2024-02-21T00:21:18;14.00;;;3.13;;
48363;SDS011;34170;54.364;18.582;2024-02-21T00:23:46;12.85;;;2.67;;
48363;SDS011;34170;54.364;18.582;2024-02-21T00:26:14;13.70;;;2.47;;
48363;SDS011;34170;54.364;18.582;2024-02-21T00:28:41;13.13;;;3.15;;
48363;SDS011;34170;54.364;18.582;2024-02-21T00:31:10;14.85;;;3.15;;
48363;SDS011;34170;54.364;18.582;2024-02-21T00:33:38;16.88;;;2.70;;
48363;SDS011;34170;54.364;18.582;2024-02-21T00:36:05;20.65;;;3.35;;
48363;SDS011;34170;54.364;18.582;2024-02-21T00:38:33;10.32;;;2.13;;
48363;SDS011;34170;54.364;18.582;2024-02-21T00:41:01;15.52;;;3.40;;
48363;SDS011;34170;54.364;18.582;2024-02-21T00:43:28;12.73;;;2.58;;
48363;SDS011;34170;54.364;18.582;2024-02-21T00:45:56;15.82;;;2.55;;
48363;SDS011;34170;54.364;18.582;2024-02-21T00:48:24;16.52;;;3.05;;
48363;SDS011;34170;54.364;18.582;2024-02-21T00:50:52;13.05;;;2.22;;
48363;SDS011;34170;54.364;18.582;2024-02-21T00:53:19;17.30;;;3.08;;
48363;SDS011;34170;54.364;18.582;2024-02-21T00:55:47;12.00;;;3.50;;
48363;SDS011;34170;54.364;18.582;2024-02-21T00:58:14;13.93;;;2.67;;
48363;SDS011;34170;54.364;18.582;2024-02-21T01:00:42;15.45;;;3.42;;
48363;SDS011;34170;54.364;18.582;2024-02-21T01:03:10;14.88;;;3.13;;
48363;SDS011;34170;54.364;18.582;2024-02-21T01:05:38;13.75;;;2.63;;
48363;SDS011;34170;54.364;18.582;2024-02-21T01:08:05;17.85;;;3.20;;
48363;SDS011;34170;54.364;18.582;2024-02-21T01:10:33;12.88;;;2.78;;
48363;SDS011;34170;54.364;18.582;2024-02-21T01:13:01;14.48;;;3.00;;
48363;SDS011;34170;54.364;18.582;2024-02-21T01:15:28;19.30;;;3.47;;
48363;SDS011;34170;54.364;18.582;2024-02-21T01:17:56;15.00;;;3.00;;
48363;SDS011;34170;54.364;18.582;2024-02-21T01:20:24;18.77;;;3.63;;
48363;SDS011;34170;54.364;18.582;2024-02-21T01:22:51;14.05;;;2.97;;
48363;SDS011;34170;54.364;18.582;2024-02-21T01:25:19;19.65;;;4.60;;
48363;SDS011;34170;54.364;18.582;2024-02-21T01:27:47;16.27;;;3.67;;
48363;SDS011;34170;54.364;18.582;2024-02-21T01:30:14;16.25;;;3.10;;
48363;SDS011;34170;54.364;18.582;2024-02-21T01:32:42;15.40;;;3.60;;
48363;SDS011;34170;54.364;18.582;2024-02-21T01:35:10;14.25;;;3.20;;
48363;SDS011;34170;54.364;18.582;2024-02-21T01:37:37;17.73;;;4.22;;
48363;SDS011;34170;54.364;18.582;2024-02-21T01:40:05;18.92;;;3.45;;
48363;SDS011;34170;54.364;18.582;2024-02-21T01:42:37;17.60;;;4.05;;
48363;SDS011;34170;54.364;18.582;2024-02-21T01:45:06;18.40;;;3.63;;
48363;SDS011;34170;54.364;18.582;2024-02-21T01:47:34;22.27;;;4.43;;
48363;SDS011;34170;54.364;18.582;2024-02-21T01:50:03;22.85;;;4.63;;
48363;SDS011;34170;54.364;18.582;2024-02-21T01:52:32;19.92;;;4.10;;
48363;SDS011;34170;54.364;18.582;2024-02-21T01:55:03;14.17;;;4.07;;
48363;SDS011;34170;54.364;18.582;2024-02-21T01:57:32;20.83;;;4.85;;
48363;SDS011;34170;54.364;18.582;2024-02-21T01:59:59;26.98;;;4.93;;
48363;SDS011;34170;54.364;18.582;2024-02-21T02:02:36;26.50;;;4.30;;
48363;SDS011;34170;54.364;18.582;2024-02-21T02:05:06;16.73;;;4.50;;
48363;SDS011;34170;54.364;18.582;2024-02-21T02:07:35;20.33;;;4.30;;
48363;SDS011;34170;54.364;18.582;2024-02-21T02:10:03;19.23;;;3.40;;
48363;SDS011;34170;54.364;18.582;2024-02-21T02:12:30;15.43;;;4.45;;
48363;SDS011;34170;54.364;18.582;2024-02-21T02:15:02;16.50;;;4.68;;
48363;SDS011;34170;54.364;18.582;2024-02-21T02:17:32;26.67;;;4.63;;
48363;SDS011;34170;54.364;18.582;2024-02-21T02:19:59;18.15;;;4.30;;
48363;SDS011;34170;54.364;18.582;2024-02-21T02:22:31;18.02;;;4.03;;
48363;SDS011;34170;54.364;18.582;2024-02-21T02:25:02;21.05;;;4.22;;
48363;SDS011;34170;54.364;18.582;2024-02-21T02:27:31;14.05;;;4.35;;
48363;SDS011;34170;54.364;18.582;2024-02-21T02:29:58;19.17;;;4.72;;
48363;SDS011;34170;54.364;18.582;2024-02-21T02:32:26;19.15;;;5.05;;
48363;SDS011;34170;54.364;18.582;2024-02-21T02:34:54;20.00;;;4.50;;
48363;SDS011;34170;54.364;18.582;2024-02-21T02:37:22;23.02;;;4.18;;
48363;SDS011;34170;54.364;18.582;2024-02-21T02:39:50;20.08;;;4.22;;
48363;SDS011;34170;54.364;18.582;2024-02-21T02:42:17;19.38;;;4.07;;
48363;SDS011;34170;54.364;18.582;2024-02-21T02:44:45;24.75;;;4.97;;
48363;SDS011;34170;54.364;18.582;2024-02-21T02:47:12;26.17;;;5.53;;
48363;SDS011;34170;54.364;18.582;2024-02-21T02:49:40;20.52;;;5.05;;
48363;SDS011;34170;54.364;18.582;2024-02-21T02:52:08;22.88;;;5.65;;
48363;SDS011;34170;54.364;18.582;2024-02-21T02:54:35;21.95;;;5.43;;
48363;SDS011;34170;54.364;18.582;2024-02-21T02:57:03;17.88;;;4.38;;
48363;SDS011;34170;54.364;18.582;2024-02-21T02:59:32;19.70;;;4.28;;
48363;SDS011;34170;54.364;18.582;2024-02-21T03:01:59;13.98;;;4.00;;
48363;SDS011;34170;54.364;18.582;2024-02-21T03:04:27;15.35;;;4.70;;
48363;SDS011;34170;54.364;18.582;2024-02-21T03:06:55;20.23;;;4.63;;
48363;SDS011;34170;54.364;18.582;2024-02-21T03:09:23;15.95;;;4.63;;
48363;SDS011;34170;54.364;18.582;2024-02-21T03:11:50;27.05;;;5.78;;
48363;SDS011;34170;54.364;18.582;2024-02-21T03:14:18;18.80;;;4.43;;
48363;SDS011;34170;54.364;18.582;2024-02-21T03:16:45;21.20;;;5.65;;
48363;SDS011;34170;54.364;18.582;2024-02-21T03:19:13;19.77;;;4.60;;
48363;SDS011;34170;54.364;18.582;2024-02-21T03:21:41;21.50;;;4.82;;
48363;SDS011;34170;54.364;18.582;2024-02-21T03:24:09;17.83;;;4.38;;
48363;SDS011;34170;54.364;18.582;2024-02-21T03:26:36;20.30;;;4.63;;
48363;SDS011;34170;54.364;18.582;2024-02-21T03:29:04;19.48;;;4.68;;
48363;SDS011;34170;54.364;18.582;2024-02-21T03:31:31;21.88;;;5.20;;
48363;SDS011;34170;54.364;18.582;2024-02-21T03:33:59;22.30;;;4.50;;
48363;SDS011;34170;54.364;18.582;2024-02-21T03:36:27;12.13;;;4.10;;
48363;SDS011;34170;54.364;18.582;2024-02-21T03:38:55;19.92;;;4.45;;
48363;SDS011;34170;54.364;18.582;2024-02-21T03:41:22;15.00;;;3.78;;
48363;SDS011;34170;54.364;18.582;2024-02-21T03:43:50;13.20;;;3.50;;
48363;SDS011;34170;54.364;18.582;2024-02-21T03:46:18;14.93;;;4.43;;
48363;SDS011;34170;54.364;18.582;2024-02-21T03:48:46;16.98;;;3.83;;
48363;SDS011;34170;54.364;18.582;2024-02-21T03:51:13;23.95;;;5.55;;
48363;SDS011;34170;54.364;18.582;2024-02-21T03:53:42;11.68;;;3.90;;
48363;SDS011;34170;54.364;18.582;2024-02-21T03:56:09;17.17;;;4.15;;
48363;SDS011;34170;54.364;18.582;2024-02-21T03:58:37;19.08;;;5.30;;
48363;SDS011;34170;54.364;18.582;2024-02-21T04:01:05;13.43;;;3.97;;
48363;SDS011;34170;54.364;18.582;2024-02-21T04:03:32;17.02;;;4.20;;
48363;SDS011;34170;54.364;18.582;2024-02-21T04:06:00;16.40;;;3.95;;
48363;SDS011;34170;54.364;18.582;2024-02-21T04:08:28;17.42;;;4.57;;
48363;SDS011;34170;54.364;18.582;2024-02-21T04:10:55;18.70;;;3.90;;
48363;SDS011;34170;54.364;18.582;2024-02-21T04:13:23;15.60;;;4.05;;
48363;SDS011;34170;54.364;18.582;2024-02-21T04:15:51;17.15;;;3.05;;
48363;SDS011;34170;54.364;18.582;2024-02-21T04:18:19;14.57;;;3.72;;
48363;SDS011;34170;54.364;18.582;2024-02-21T04:20:46;11.15;;;3.30;;
48363;SDS011;34170;54.364;18.582;2024-02-21T04:23:14;12.60;;;3.17;;
48363;SDS011;34170;54.364;18.582;2024-02-21T04:25:42;16.98;;;4.07;;
48363;SDS011;34170;54.364;18.582;2024-02-21T04:28:10;12.98;;;3.33;;
48363;SDS011;34170;54.364;18.582;2024-02-21T04:30:37;15.05;;;3.30;;
48363;SDS011;34170;54.364;18.582;2024-02-21T04:33:05;12.52;;;3.83;;
48363;SDS011;34170;54.364;18.582;2024-02-21T04:35:32;16.63;;;4.45;;
48363;SDS011;34170;54.364;18.582;2024-02-21T04:38:00;12.25;;;3.38;;
48363;SDS011;34170;54.364;18.582;2024-02-21T04:40:28;14.48;;;3.40;;
48363;SDS011;34170;54.364;18.582;2024-02-21T04:42:56;10.82;;;3.03;;
48363;SDS011;34170;54.364;18.582;2024-02-21T04:45:24;11.73;;;3.15;;
48363;SDS011;34170;54.364;18.582;2024-02-21T04:47:51;11.95;;;3.67;;
48363;SDS011;34170;54.364;18.582;2024-02-21T04:50:19;16.00;;;3.65;;
48363;SDS011;34170;54.364;18.582;2024-02-21T04:52:47;15.90;;;3.85;;
48363;SDS011;34170;54.364;18.582;2024-02-21T04:55:14;21.05;;;3.88;;
48363;SDS011;34170;54.364;18.582;2024-02-21T04:57:42;18.35;;;4.32;;
48363;SDS011;34170;54.364;18.582;2024-02-21T05:00:10;11.55;;;3.80;;
48363;SDS011;34170;54.364;18.582;2024-02-21T05:02:38;12.20;;;4.30;;
48363;SDS011;34170;54.364;18.582;2024-02-21T05:05:05;19.35;;;5.57;;
48363;SDS011;34170;54.364;18.582;2024-02-21T05:07:34;18.38;;;5.35;;
48363;SDS011;34170;54.364;18.582;2024-02-21T05:10:02;17.08;;;4.90;;
48363;SDS011;34170;54.364;18.582;2024-02-21T05:12:30;15.32;;;5.28;;
48363;SDS011;34170;54.364;18.582;2024-02-21T05:14:58;16.38;;;4.95;;
48363;SDS011;34170;54.364;18.582;2024-02-21T05:17:25;13.50;;;5.30;;
48363;SDS011;34170;54.364;18.582;2024-02-21T05:19:53;13.18;;;5.80;;
48363;SDS011;34170;54.364;18.582;2024-02-21T05:22:21;9.98;;;5.25;;
48363;SDS011;34170;54.364;18.582;2024-02-21T05:24:49;13.20;;;4.95;;
48363;SDS011;34170;54.364;18.582;2024-02-21T05:27:16;14.10;;;4.38;;
48363;SDS011;34170;54.364;18.582;2024-02-21T05:29:44;11.15;;;4.50;;
48363;SDS011;34170;54.364;18.582;2024-02-21T05:32:12;11.85;;;4.22;;
48363;SDS011;34170;54.364;18.582;2024-02-21T05:34:40;13.25;;;4.80;;
48363;SDS011;34170;54.364;18.582;2024-02-21T05:37:08;16.83;;;5.50;;
48363;SDS011;34170;54.364;18.582;2024-02-21T05:39:35;16.15;;;6.13;;
48363;SDS011;34170;54.364;18.582;2024-02-21T05:42:03;19.25;;;6.18;;
48363;SDS011;34170;54.364;18.582;2024-02-21T05:44:31;15.98;;;4.78;;
48363;SDS011;34170;54.364;18.582;2024-02-21T05:46:58;12.38;;;4.60;;
48363;SDS011;34170;54.364;18.582;2024-02-21T05:49:26;10.52;;;4.40;;
48363;SDS011;34170;54.364;18.582;2024-02-21T05:51:54;16.73;;;5.22;;
48363;SDS011;34170;54.364;18.582;2024-02-21T05:54:21;18.73;;;5.38;;
48363;SDS011;34170;54.364;18.582;2024-02-21T05:56:49;15.60;;;5.50;;
48363;SDS011;34170;54.364;18.582;2024-02-21T05:59:17;14.20;;;5.20;;
48363;SDS011;34170;54.364;18.582;2024-02-21T06:01:44;13.35;;;5.32;;
48363;SDS011;34170;54.364;18.582;2024-02-21T06:04:12;13.48;;;5.60;;
48363;SDS011;34170;54.364;18.582;2024-02-21T06:06:40;15.63;;;5.57;;
48363;SDS011;34170;54.364;18.582;2024-02-21T06:09:08;18.77;;;6.55;;
48363;SDS011;34170;54.364;18.582;2024-02-21T06:11:36;17.58;;;6.53;;
48363;SDS011;34170;54.364;18.582;2024-02-21T06:14:05;20.20;;;6.72;;
48363;SDS011;34170;54.364;18.582;2024-02-21T06:16:33;18.90;;;6.85;;
48363;SDS011;34170;54.364;18.582;2024-02-21T06:19:00;20.10;;;7.50;;
48363;SDS011;34170;54.364;18.582;2024-02-21T06:21:30;16.92;;;6.63;;
48363;SDS011;34170;54.364;18.582;2024-02-21T06:23:57;18.23;;;7.10;;
48363;SDS011;34170;54.364;18.582;2024-02-21T06:26:25;15.18;;;6.80;;
48363;SDS011;34170;54.364;18.582;2024-02-21T06:28:53;20.42;;;7.22;;
48363;SDS011;34170;54.364;18.582;2024-02-21T06:31:21;17.77;;;6.30;;
48363;SDS011;34170;54.364;18.582;2024-02-21T06:33:48;22.38;;;7.45;;
48363;SDS011;34170;54.364;18.582;2024-02-21T06:36:16;14.95;;;6.28;;
48363;SDS011;34170;54.364;18.582;2024-02-21T06:38:43;15.07;;;6.20;;
48363;SDS011;34170;54.364;18.582;2024-02-21T06:41:15;16.65;;;6.43;;
48363;SDS011;34170;54.364;18.582;2024-02-21T06:46:12;24.63;;;7.50;;
48363;SDS011;34170;54.364;18.582;2024-02-21T06:48:49;23.77;;;6.70;;
48363;SDS011;34170;54.364;18.582;2024-02-21T06:51:17;22.42;;;6.40;;
48363;SDS011;34170;54.364;18.582;2024-02-21T06:53:44;19.90;;;6.90;;
48363;SDS011;34170;54.364;18.582;2024-02-21T06:56:12;22.48;;;7.32;;
48363;SDS011;34170;54.364;18.582;2024-02-21T06:58:40;20.65;;;6.05;;
48363;SDS011;34170;54.364;18.582;2024-02-21T07:01:10;16.38;;;6.20;;
48363;SDS011;34170;54.364;18.582;2024-02-21T07:03:38;20.80;;;6.90;;
48363;SDS011;34170;54.364;18.582;2024-02-21T07:06:06;20.77;;;6.88;;
48363;SDS011;34170;54.364;18.582;2024-02-21T07:08:33;22.38;;;6.70;;
48363;SDS011;34170;54.364;18.582;2024-02-21T07:11:01;19.98;;;7.00;;
48363;SDS011;34170;54.364;18.582;2024-02-21T07:13:29;20.88;;;6.93;;
48363;SDS011;34170;54.364;18.582;2024-02-21T07:15:56;22.10;;;6.97;;
48363;SDS011;34170;54.364;18.582;2024-02-21T07:18:24;19.52;;;6.80;;
48363;SDS011;34170;54.364;18.582;2024-02-21T07:20:55;21.27;;;6.90;;
48363;SDS011;34170;54.364;18.582;2024-02-21T07:23:22;20.58;;;6.15;;
48363;SDS011;34170;54.364;18.582;2024-02-21T07:25:50;23.48;;;6.20;;
48363;SDS011;34170;54.364;18.582;2024-02-21T07:28:18;27.85;;;6.78;;
48363;SDS011;34170;54.364;18.582;2024-02-21T07:30:46;17.77;;;6.40;;
48363;SDS011;34170;54.364;18.582;2024-02-21T07:33:13;17.63;;;5.93;;
48363;SDS011;34170;54.364;18.582;2024-02-21T07:35:41;20.48;;;6.93;;
48363;SDS011;34170;54.364;18.582;2024-02-21T07:38:11;23.85;;;8.10;;
48363;SDS011;34170;54.364;18.582;2024-02-21T07:40:40;21.38;;;6.60;;
48363;SDS011;34170;54.364;18.582;2024-02-21T07:43:08;24.77;;;7.65;;
48363;SDS011;34170;54.364;18.582;2024-02-21T07:45:35;24.88;;;8.00;;
48363;SDS011;34170;54.364;18.582;2024-02-21T07:48:03;24.58;;;8.13;;
48363;SDS011;34170;54.364;18.582;2024-02-21T07:50:32;29.13;;;9.23;;
48363;SDS011;34170;54.364;18.582;2024-02-21T07:52:59;23.08;;;9.65;;
48363;SDS011;34170;54.364;18.582;2024-02-21T07:55:27;24.15;;;9.50;;
48363;SDS011;34170;54.364;18.582;2024-02-21T07:57:55;26.55;;;9.40;;
48363;SDS011;34170;54.364;18.582;2024-02-21T08:00:23;23.48;;;9.18;;
48363;SDS011;34170;54.364;18.582;2024-02-21T08:02:50;29.52;;;10.32;;
48363;SDS011;34170;54.364;18.582;2024-02-21T08:05:18;27.27;;;10.60;;
48363;SDS011;34170;54.364;18.582;2024-02-21T08:07:46;31.40;;;10.60;;
48363;SDS011;34170;54.364;18.582;2024-02-21T08:10:15;33.75;;;11.25;;
48363;SDS011;34170;54.364;18.582;2024-02-21T08:12:43;29.17;;;11.13;;
48363;SDS011;34170;54.364;18.582;2024-02-21T08:15:11;30.33;;;11.45;;
48363;SDS011;34170;54.364;18.582;2024-02-21T08:17:39;24.33;;;10.25;;
48363;SDS011;34170;54.364;18.582;2024-02-21T08:20:07;27.60;;;11.25;;
48363;SDS011;34170;54.364;18.582;2024-02-21T08:22:37;22.45;;;9.95;;
48363;SDS011;34170;54.364;18.582;2024-02-21T08:25:05;26.88;;;9.23;;
48363;SDS011;34170;54.364;18.582;2024-02-21T08:27:33;22.20;;;9.75;;
48363;SDS011;34170;54.364;18.582;2024-02-21T08:30:01;22.60;;;9.25;;
48363;SDS011;34170;54.364;18.582;2024-02-21T08:32:29;20.92;;;8.77;;
48363;SDS011;34170;54.364;18.582;2024-02-21T08:34:57;26.33;;;8.23;;
48363;SDS011;34170;54.364;18.582;2024-02-21T08:37:24;21.48;;;8.82;;
48363;SDS011;34170;54.364;18.582;2024-02-21T08:39:52;19.58;;;8.75;;
48363;SDS011;34170;54.364;18.582;2024-02-21T08:42:19;23.13;;;8.98;;
48363;SDS011;34170;54.364;18.582;2024-02-21T08:44:47;19.70;;;9.13;;
48363;SDS011;34170;54.364;18.582;2024-02-21T08:47:14;19.70;;;8.52;;
48363;SDS011;34170;54.364;18.582;2024-02-21T08:49:42;19.55;;;9.13;;
48363;SDS011;34170;54.364;18.582;2024-02-21T08:52:10;18.98;;;7.80;;
48363;SDS011;34170;54.364;18.582;2024-02-21T08:54:38;18.52;;;7.32;;
48363;SDS011;34170;54.364;18.582;2024-02-21T08:57:05;20.05;;;8.38;;
48363;SDS011;34170;54.364;18.582;2024-02-21T08:59:33;22.60;;;8.65;;
48363;SDS011;34170;54.364;18.582;2024-02-21T09:02:01;18.48;;;8.68;;
48363;SDS011;34170;54.364;18.582;2024-02-21T09:04:31;22.58;;;9.57;;
48363;SDS011;34170;54.364;18.582;2024-02-21T09:06:59;18.85;;;9.27;;
48363;SDS011;34170;54.364;18.582;2024-02-21T09:09:27;22.85;;;10.38;;
48363;SDS011;34170;54.364;18.582;2024-02-21T09:11:56;16.80;;;9.38;;
48363;SDS011;34170;54.364;18.582;2024-02-21T09:14:25;20.52;;;9.60;;
48363;SDS011;34170;54.364;18.582;2024-02-21T09:16:52;21.23;;;9.93;;
48363;SDS011;34170;54.364;18.582;2024-02-21T09:19:20;20.92;;;9.32;;
48363;SDS011;34170;54.364;18.582;2024-02-21T09:21:48;26.02;;;11.00;;
48363;SDS011;34170;54.364;18.582;2024-02-21T09:24:17;21.50;;;8.93;;
48363;SDS011;34170;54.364;18.582;2024-02-21T09:26:45;21.80;;;10.68;;
48363;SDS011;34170;54.364;18.582;2024-02-21T09:29:13;24.33;;;10.52;;
48363;SDS011;34170;54.364;18.582;2024-02-21T09:31:42;24.48;;;11.30;;
48363;SDS011;34170;54.364;18.582;2024-02-21T09:34:10;24.75;;;11.20;;
48363;SDS011;34170;54.364;18.582;2024-02-21T09:36:38;23.13;;;11.77;;
48363;SDS011;34170;54.364;18.582;2024-02-21T09:39:07;21.85;;;10.32;;
48363;SDS011;34170;54.364;18.582;2024-02-21T09:41:36;22.92;;;11.15;;
48363;SDS011;34170;54.364;18.582;2024-02-21T09:44:10;18.88;;;9.77;;
48363;SDS011;34170;54.364;18.582;2024-02-21T09:51:38;19.27;;;10.30;;
48363;SDS011;34170;54.364;18.582;2024-02-21T09:54:09;22.50;;;10.27;;
48363;SDS011;34170;54.364;18.582;2024-02-21T09:56:47;21.00;;;9.25;;
48363;SDS011;34170;54.364;18.582;2024-02-21T09:59:15;19.40;;;9.70;;
48363;SDS011;34170;54.364;18.582;2024-02-21T10:01:44;20.67;;;10.52;;
48363;SDS011;34170;54.364;18.582;2024-02-21T10:04:12;19.08;;;8.88;;
48363;SDS011;34170;54.364;18.582;2024-02-21T10:06:40;25.75;;;10.00;;
48363;SDS011;34170;54.364;18.582;2024-02-21T10:09:09;15.15;;;7.85;;
48363;SDS011;34170;54.364;18.582;2024-02-21T10:11:47;14.27;;;7.20;;
48363;SDS011;34170;54.364;18.582;2024-02-21T10:14:15;11.45;;;6.50;;
48363;SDS011;34170;54.364;18.582;2024-02-21T10:16:43;13.90;;;7.18;;
48363;SDS011;34170;54.364;18.582;2024-02-21T10:19:18;12.20;;;6.97;;
48363;SDS011;34170;54.364;18.582;2024-02-21T10:22:03;10.00;;;6.00;;
48363;SDS011;34170;54.364;18.582;2024-02-21T10:24:31;10.05;;;5.60;;
48363;SDS011;34170;54.364;18.582;2024-02-21T10:27:05;9.93;;;5.75;;
48363;SDS011;34170;54.364;18.582;2024-02-21T10:29:36;10.27;;;5.15;;
48363;SDS011;34170;54.364;18.582;2024-02-21T10:32:11;11.27;;;5.63;;
48363;SDS011;34170;54.364;18.582;2024-02-21T10:34:41;11.88;;;5.63;;
48363;SDS011;34170;54.364;18.582;2024-02-21T10:37:11;9.65;;;5.20;;
48363;SDS011;34170;54.364;18.582;2024-02-21T10:39:40;8.43;;;5.15;;
48363;SDS011;34170;54.364;18.582;2024-02-21T10:42:10;13.82;;;6.00;;
48363;SDS011;34170;54.364;18.582;2024-02-21T10:44:40;11.05;;;4.50;;
48363;SDS011;34170;54.364;18.582;2024-02-21T10:47:09;10.57;;;4.93;;
48363;SDS011;34170;54.364;18.582;2024-02-21T10:49:39;7.63;;;3.85;;
48363;SDS011;34170;54.364;18.582;2024-02-21T10:52:14;6.05;;;3.70;;
48363;SDS011;34170;54.364;18.582;2024-02-21T10:55:05;7.18;;;4.13;;
48363;SDS011;34170;54.364;18.582;2024-02-21T10:57:43;7.25;;;3.90;;
48363;SDS011;34170;54.364;18.582;2024-02-21T11:00:11;6.07;;;3.60;;
48363;SDS011;34170;54.364;18.582;2024-02-21T11:02:46;7.63;;;3.58;;
48363;SDS011;34170;54.364;18.582;2024-02-21T11:05:15;6.70;;;3.78;;
48363;SDS011;34170;54.364;18.582;2024-02-21T11:07:43;6.90;;;3.60;;
48363;SDS011;34170;54.364;18.582;2024-02-21T11:10:24;7.93;;;3.22;;
48363;SDS011;34170;54.364;18.582;2024-02-21T11:12:53;10.18;;;4.00;;
48363;SDS011;34170;54.364;18.582;2024-02-21T11:15:32;5.82;;;3.22;;
48363;SDS011;34170;54.364;18.582;2024-02-21T11:17:59;4.75;;;3.20;;
48363;SDS011;34170;54.364;18.582;2024-02-21T11:20:32;5.25;;;3.15;;
48363;SDS011;34170;54.364;18.582;2024-02-21T11:23:01;6.63;;;3.03;;
48363;SDS011;34170;54.364;18.582;2024-02-21T11:25:29;5.10;;;3.25;;
48363;SDS011;34170;54.364;18.582;2024-02-21T11:28:02;5.60;;;3.50;;
48363;SDS011;34170;54.364;18.582;2024-02-21T11:30:31;4.88;;;2.92;;
48363;SDS011;34170;54.364;18.582;2024-02-21T11:33:02;10.63;;;3.10;;
48363;SDS011;34170;54.364;18.582;2024-02-21T11:35:31;6.55;;;3.42;;
48363;SDS011;34170;54.364;18.582;2024-02-21T11:38:07;6.60;;;3.95;;
48363;SDS011;34170;54.364;18.582;2024-02-21T11:40:46;5.22;;;3.50;;
48363;SDS011;34170;54.364;18.582;2024-02-21T11:43:15;6.25;;;3.28;;
48363;SDS011;34170;54.364;18.582;2024-02-21T11:45:44;5.15;;;2.97;;
48363;SDS011;34170;54.364;18.582;2024-02-21T11:48:11;6.90;;;3.20;;
48363;SDS011;34170;54.364;18.582;2024-02-21T11:50:40;6.10;;;3.30;;
48363;SDS011;34170;54.364;18.582;2024-02-21T11:53:07;4.60;;;3.05;;
48363;SDS011;34170;54.364;18.582;2024-02-21T11:55:36;4.57;;;2.92;;
48363;SDS011;34170;54.364;18.582;2024-02-21T11:58:04;5.57;;;3.20;;
48363;SDS011;34170;54.364;18.582;2024-02-21T12:00:32;4.97;;;3.15;;
48363;SDS011;34170;54.364;18.582;2024-02-21T12:03:00;6.15;;;3.00;;
48363;SDS011;34170;54.364;18.582;2024-02-21T12:05:30;7.53;;;3.60;;
48363;SDS011;34170;54.364;18.582;2024-02-21T12:07:59;5.70;;;3.28;;
48363;SDS011;34170;54.364;18.582;2024-02-21T12:10:27;4.43;;;3.13;;
48363;SDS011;34170;54.364;18.582;2024-02-21T12:13:04;6.32;;;3.08;;
48363;SDS011;34170;54.364;18.582;2024-02-21T12:15:36;4.32;;;2.85;;
48363;SDS011;34170;54.364;18.582;2024-02-21T12:18:05;5.65;;;2.67;;
48363;SDS011;34170;54.364;18.582;2024-02-21T12:20:33;5.22;;;2.53;;
48363;SDS011;34170;54.364;18.582;2024-02-21T12:23:03;4.47;;;2.67;;
48363;SDS011;34170;54.364;18.582;2024-02-21T12:25:31;5.45;;;3.17;;
48363;SDS011;34170;54.364;18.582;2024-02-21T12:28:00;3.67;;;2.53;;
48363;SDS011;34170;54.364;18.582;2024-02-21T12:30:28;4.13;;;2.50;;
48363;SDS011;34170;54.364;18.582;2024-02-21T12:32:57;4.43;;;2.33;;
48363;SDS011;34170;54.364;18.582;2024-02-21T12:35:26;6.15;;;2.50;;
48363;SDS011;34170;54.364;18.582;2024-02-21T12:37:54;5.05;;;2.63;;
48363;SDS011;34170;54.364;18.582;2024-02-21T12:40:22;5.50;;;1.77;;
48363;SDS011;34170;54.364;18.582;2024-02-21T12:42:50;4.55;;;1.90;;
48363;SDS011;34170;54.364;18.582;2024-02-21T12:45:18;2.33;;;1.55;;
48363;SDS011;34170;54.364;18.582;2024-02-21T12:47:46;1.85;;;1.13;;
48363;SDS011;34170;54.364;18.582;2024-02-21T12:50:14;3.67;;;1.52;;
48363;SDS011;34170;54.364;18.582;2024-02-21T12:52:42;2.53;;;1.13;;
48363;SDS011;34170;54.364;18.582;2024-02-21T12:55:10;5.10;;;1.48;;
48363;SDS011;34170;54.364;18.582;2024-02-21T12:57:40;4.22;;;1.50;;
48363;SDS011;34170;54.364;18.582;2024-02-21T13:00:08;2.47;;;1.10;;
48363;SDS011;34170;54.364;18.582;2024-02-21T13:02:36;4.18;;;1.50;;
48363;SDS011;34170;54.364;18.582;2024-02-21T13:05:06;4.60;;;1.00;;
48363;SDS011;34170;54.364;18.582;2024-02-21T13:07:35;3.67;;;1.38;;
48363;SDS011;34170;54.364;18.582;2024-02-21T13:10:02;4.03;;;1.38;;
48363;SDS011;34170;54.364;18.582;2024-02-21T13:12:32;4.07;;;1.45;;
48363;SDS011;34170;54.364;18.582;2024-02-21T13:15:00;4.45;;;1.40;;
48363;SDS011;34170;54.364;18.582;2024-02-21T13:17:28;5.90;;;1.45;;
48363;SDS011;34170;54.364;18.582;2024-02-21T13:19:59;4.55;;;1.73;;
48363;SDS011;34170;54.364;18.582;2024-02-21T13:22:27;2.60;;;1.00;;
48363;SDS011;34170;54.364;18.582;2024-02-21T13:24:55;3.67;;;1.15;;
48363;SDS011;34170;54.364;18.582;2024-02-21T13:27:25;3.22;;;1.23;;
48363;SDS011;34170;54.364;18.582;2024-02-21T13:29:52;3.08;;;0.90;;
48363;SDS011;34170;54.364;18.582;2024-02-21T13:32:20;2.60;;;0.80;;
48363;SDS011;34170;54.364;18.582;2024-02-21T13:34:48;3.80;;;1.42;;
48363;SDS011;34170;54.364;18.582;2024-02-21T13:37:16;3.47;;;1.40;;
48363;SDS011;34170;54.364;18.582;2024-02-21T13:39:43;7.18;;;1.50;;
48363;SDS011;34170;54.364;18.582;2024-02-21T13:42:11;5.75;;;1.95;;
48363;SDS011;34170;54.364;18.582;2024-02-21T13:44:39;4.63;;;1.73;;
48363;SDS011;34170;54.364;18.582;2024-02-21T13:47:07;4.75;;;1.65;;
48363;SDS011;34170;54.364;18.582;2024-02-21T13:49:35;3.92;;;1.60;;
48363;SDS011;34170;54.364;18.582;2024-02-21T13:52:03;4.07;;;1.63;;
48363;SDS011;34170;54.364;18.582;2024-02-21T13:54:31;5.28;;;1.80;;
48363;SDS011;34170;54.364;18.582;2024-02-21T13:56:58;4.60;;;1.80;;
48363;SDS011;34170;54.364;18.582;2024-02-21T13:59:26;5.57;;;2.40;;
48363;SDS011;34170;54.364;18.582;2024-02-21T14:01:54;3.80;;;2.03;;
48363;SDS011;34170;54.364;18.582;2024-02-21T14:04:22;4.95;;;2.03;;
48363;SDS011;34170;54.364;18.582;2024-02-21T14:06:50;4.35;;;2.00;;
48363;SDS011;34170;54.364;18.582;2024-02-21T14:09:18;4.68;;;2.33;;
48363;SDS011;34170;54.364;18.582;2024-02-21T14:11:46;5.75;;;2.58;;
48363;SDS011;34170;54.364;18.582;2024-02-21T14:14:14;6.57;;;2.58;;
48363;SDS011;34170;54.364;18.582;2024-02-21T14:16:42;5.20;;;3.10;;
48363;SDS011;34170;54.364;18.582;2024-02-21T14:19:10;5.63;;;3.00;;
48363;SDS011;34170;54.364;18.582;2024-02-21T14:21:39;7.45;;;3.40;;
48363;SDS011;34170;54.364;18.582;2024-02-21T14:24:06;8.07;;;3.42;;
48363;SDS011;34170;54.364;18.582;2024-02-21T14:26:34;6.82;;;3.55;;
48363;SDS011;34170;54.364;18.582;2024-02-21T14:29:03;9.88;;;3.40;;
48363;SDS011;34170;54.364;18.582;2024-02-21T14:31:31;8.23;;;3.92;;
48363;SDS011;34170;54.364;18.582;2024-02-21T14:34:00;8.65;;;4.03;;
48363;SDS011;34170;54.364;18.582;2024-02-21T14:36:29;10.27;;;4.32;;
48363;SDS011;34170;54.364;18.582;2024-02-21T14:39:00;8.05;;;3.58;;